METAR EVRA 280550Z 16014KT 9999 OVC003 00/M00 Q1004 R18/290195 NOSIG =

ATC Feedback

Controllers Online

PositionControllerOnline
No controllers currently online

Booked ATC Today

* Times are UTC

The time is now

UTC: 

Local: 

Latvia vACC on twitter